createdAt,value
2018-09-19T00:01:35.878Z,73.90
2018-09-19T00:04:04.682Z,74.20
2018-09-19T00:06:33.470Z,74.10
2018-09-19T00:09:02.262Z,74.80
2018-09-19T00:11:31.038Z,74.80
2018-09-19T00:13:59.862Z,74.60
2018-09-19T00:16:28.630Z,74.70
2018-09-19T00:18:57.425Z,74.80
2018-09-19T00:21:26.245Z,75.10
2018-09-19T00:23:55.056Z,74.90
2018-09-19T00:26:23.859Z,74.70
2018-09-19T00:28:53.768Z,74.90
2018-09-19T00:31:22.632Z,75.50
2018-09-19T00:33:51.389Z,75.90
2018-09-19T00:36:20.132Z,75.80
2018-09-19T00:38:49.113Z,75.40
2018-09-19T00:41:17.863Z,75.40
2018-09-19T00:43:46.880Z,75.60
2018-09-19T00:46:15.620Z,76.00
2018-09-19T00:48:44.470Z,75.60
2018-09-19T00:51:13.255Z,76.00
2018-09-19T00:53:42.045Z,76.60
2018-09-19T00:56:10.954Z,76.40
2018-09-19T00:58:39.738Z,76.30
2018-09-19T01:01:08.833Z,76.90
2018-09-19T01:03:37.579Z,77.00
2018-09-19T01:06:06.417Z,77.10
2018-09-19T01:08:35.243Z,76.40
2018-09-19T01:11:04.334Z,76.40
2018-09-19T01:13:33.048Z,76.70
2018-09-19T01:16:01.785Z,77.60
2018-09-19T01:18:30.581Z,77.60
2018-09-19T01:20:59.334Z,77.50
2018-09-19T01:23:28.105Z,77.70
2018-09-19T01:25:56.922Z,77.90
2018-09-19T01:28:25.691Z,77.70
2018-09-19T01:30:54.537Z,77.60
2018-09-19T01:33:23.393Z,77.50
2018-09-19T01:35:52.193Z,78.00
2018-09-19T01:38:21.039Z,78.00
2018-09-19T01:40:49.812Z,78.00
2018-09-19T01:43:18.614Z,78.30
2018-09-19T01:45:47.456Z,78.10
2018-09-19T01:48:16.245Z,77.90
2018-09-19T01:50:45.014Z,77.90
2018-09-19T01:53:13.796Z,77.70
2018-09-19T01:55:42.629Z,77.80
2018-09-19T01:58:11.372Z,77.60
2018-09-19T02:00:40.223Z,78.40
2018-09-19T02:03:08.936Z,78.50
2018-09-19T02:05:37.712Z,78.80
2018-09-19T02:08:06.585Z,78.50
2018-09-19T02:10:35.376Z,78.60
2018-09-19T02:13:04.261Z,78.70
2018-09-19T02:15:33.094Z,78.30
2018-09-19T02:18:01.882Z,78.90
2018-09-19T02:20:30.612Z,79.00
2018-09-19T02:22:59.437Z,78.60
2018-09-19T02:25:28.218Z,79.20
2018-09-19T02:27:57.043Z,78.80
2018-09-19T02:30:25.859Z,78.50
2018-09-19T02:32:54.578Z,78.00
2018-09-19T02:35:23.423Z,78.00
2018-09-19T02:37:52.235Z,77.90
2018-09-19T02:40:21.034Z,78.80
2018-09-19T02:42:49.785Z,78.80
2018-09-19T02:45:18.596Z,78.40
2018-09-19T02:47:47.384Z,77.60
2018-09-19T02:50:19.179Z,78.10
2018-09-19T02:52:53.196Z,78.20
2018-09-19T02:55:21.998Z,79.10
2018-09-19T02:57:50.813Z,79.70
2018-09-19T03:00:19.570Z,79.50
2018-09-19T03:02:48.426Z,80.40
2018-09-19T03:05:17.195Z,80.30
2018-09-19T03:07:46.016Z,80.40
2018-09-19T03:10:14.854Z,79.90
2018-09-19T03:12:43.706Z,79.90
2018-09-19T03:15:12.513Z,81.10
2018-09-19T03:17:41.438Z,80.50
2018-09-19T03:20:10.458Z,80.40
2018-09-19T03:22:39.243Z,80.90
2018-09-19T03:25:08.042Z,81.20
2018-09-19T03:27:36.860Z,81.00
2018-09-19T03:30:06.101Z,81.20
2018-09-19T03:32:34.889Z,80.60
2018-09-19T03:35:03.710Z,80.70
2018-09-19T03:37:32.485Z,81.20
2018-09-19T03:40:01.245Z,80.30
2018-09-19T03:42:30.041Z,79.90
2018-09-19T03:44:58.770Z,80.10
2018-09-19T03:47:27.527Z,80.90
2018-09-19T03:49:56.440Z,81.30
2018-09-19T03:52:25.182Z,81.60
2018-09-19T03:54:53.969Z,81.60
2018-09-19T03:57:22.783Z,81.20
2018-09-19T03:59:51.557Z,81.20
2018-09-19T04:02:20.365Z,80.90
2018-09-19T04:04:49.230Z,80.90
2018-09-19T04:07:18.737Z,80.80
2018-09-19T04:09:54.562Z,80.60
2018-09-19T04:12:23.402Z,80.10
2018-09-19T04:14:52.182Z,81.00
2018-09-19T04:17:20.982Z,82.00
2018-09-19T04:19:49.825Z,82.20
2018-09-19T04:22:18.718Z,82.00
2018-09-19T04:24:47.536Z,81.40
2018-09-19T04:27:16.337Z,81.40
2018-09-19T04:29:45.216Z,81.80
2018-09-19T04:32:14.160Z,81.30
2018-09-19T04:34:42.905Z,81.20
2018-09-19T04:37:11.706Z,81.90
2018-09-19T04:39:40.474Z,82.50
2018-09-19T04:42:09.219Z,82.70
2018-09-19T04:44:37.997Z,82.70
2018-09-19T04:47:09.560Z,82.60
2018-09-19T04:49:38.378Z,82.70
2018-09-19T04:52:07.817Z,82.70
2018-09-19T04:54:36.700Z,83.50
2018-09-19T04:57:05.584Z,83.30
2018-09-19T04:59:34.400Z,83.00
2018-09-19T05:02:03.182Z,83.10
2018-09-19T05:04:31.962Z,83.00
2018-09-19T05:07:00.763Z,82.70
2018-09-19T05:09:29.517Z,82.60
2018-09-19T05:11:58.299Z,82.80
2018-09-19T05:14:27.081Z,82.70
2018-09-19T05:16:55.852Z,83.00
2018-09-19T05:19:24.646Z,83.20
2018-09-19T05:21:53.389Z,82.90
2018-09-19T05:24:22.126Z,82.90
2018-09-19T05:26:51.230Z,82.90
2018-09-19T05:29:19.978Z,82.70
2018-09-19T05:31:50.222Z,82.70
2018-09-19T05:34:20.085Z,82.80
2018-09-19T05:36:48.910Z,82.80
2018-09-19T05:39:18.578Z,82.30
2018-09-19T05:41:48.806Z,83.20
2018-09-19T05:44:17.610Z,83.20
2018-09-19T05:46:46.760Z,83.20
2018-09-19T05:49:15.551Z,82.90
2018-09-19T05:51:44.443Z,83.30
2018-09-19T05:54:13.335Z,82.70
2018-09-19T05:56:42.100Z,82.80
2018-09-19T05:59:10.880Z,81.90
2018-09-19T06:01:39.695Z,79.50
2018-09-19T06:04:08.425Z,79.50
2018-09-19T06:06:37.180Z,79.50
2018-09-19T06:09:08.599Z,79.50
2018-09-19T06:11:37.489Z,79.20
2018-09-19T06:14:06.383Z,79.70
2018-09-19T06:16:35.135Z,79.40
2018-09-19T06:19:03.894Z,79.70
2018-09-19T06:21:32.689Z,79.80
2018-09-19T06:24:01.477Z,79.50
2018-09-19T06:26:30.351Z,78.00
2018-09-19T06:28:59.115Z,77.20
2018-09-19T06:31:27.839Z,73.90
2018-09-19T06:33:56.637Z,71.60
2018-09-19T06:36:25.438Z,70.40
2018-09-19T06:38:54.212Z,69.10
2018-09-19T06:41:23.011Z,67.00
2018-09-19T06:43:51.806Z,67.40
2018-09-19T06:46:20.608Z,68.10
2018-09-19T06:48:49.401Z,67.10
2018-09-19T06:51:18.270Z,66.00
2018-09-19T06:53:47.004Z,64.90
2018-09-19T06:56:15.933Z,64.10
2018-09-19T06:58:44.797Z,62.70
2018-09-19T07:01:13.565Z,62.90
2018-09-19T07:03:42.370Z,63.40
2018-09-19T07:06:11.406Z,64.50
2018-09-19T07:08:40.157Z,65.30
2018-09-19T07:11:08.948Z,66.70
2018-09-19T07:13:37.761Z,68.70
2018-09-19T07:16:06.522Z,69.90
2018-09-19T07:18:35.258Z,70.60
2018-09-19T07:21:04.123Z,70.20
2018-09-19T07:23:32.917Z,69.60
2018-09-19T07:26:01.669Z,68.30
2018-09-19T07:28:30.650Z,66.70
2018-09-19T07:30:59.460Z,65.90
2018-09-19T07:33:28.260Z,65.40
2018-09-19T07:35:57.058Z,64.50
2018-09-19T07:38:25.845Z,64.00
2018-09-19T07:40:54.629Z,63.20
2018-09-19T07:43:23.393Z,63.40
2018-09-19T07:45:52.177Z,61.60
2018-09-19T07:48:21.021Z,61.20
2018-09-19T07:50:49.786Z,60.60
2018-09-19T07:53:18.532Z,59.50
2018-09-19T07:55:47.357Z,59.40
2018-09-19T07:58:16.150Z,60.40
2018-09-19T08:00:45.073Z,60.00
2018-09-19T08:03:13.818Z,60.70
2018-09-19T08:05:42.597Z,59.90
2018-09-19T08:08:11.391Z,58.60
2018-09-19T08:10:40.293Z,59.70
2018-09-19T08:13:09.078Z,59.20
2018-09-19T08:15:37.868Z,57.70
2018-09-19T08:18:06.675Z,60.20
2018-09-19T08:20:35.487Z,60.30
2018-09-19T08:23:04.316Z,60.30
2018-09-19T08:25:33.171Z,59.90
2018-09-19T08:28:02.253Z,60.20
2018-09-19T08:30:31.045Z,59.50
2018-09-19T08:32:59.824Z,59.20
2018-09-19T08:35:28.602Z,59.10
2018-09-19T08:37:57.374Z,58.00
2018-09-19T08:40:26.261Z,57.20
2018-09-19T08:42:54.993Z,57.60
2018-09-19T08:45:23.831Z,58.40
2018-09-19T08:47:52.619Z,58.10
2018-09-19T08:50:21.379Z,56.20
2018-09-19T08:52:50.237Z,56.20
2018-09-19T08:55:19.006Z,56.20
2018-09-19T08:57:48.489Z,55.90
2018-09-19T09:00:17.368Z,55.70
2018-09-19T09:02:46.181Z,55.90
2018-09-19T09:05:14.990Z,54.30
2018-09-19T09:07:43.809Z,55.00
2018-09-19T09:10:12.600Z,54.30
2018-09-19T09:12:41.501Z,55.60
2018-09-19T09:15:10.177Z,54.00
2018-09-19T09:17:38.957Z,54.40
2018-09-19T09:20:07.830Z,53.90
2018-09-19T09:22:36.605Z,53.00
2018-09-19T09:25:05.466Z,54.10
2018-09-19T09:27:34.293Z,54.10
2018-09-19T09:30:03.075Z,54.30
2018-09-19T09:32:31.844Z,54.40
2018-09-19T09:35:00.598Z,52.90
2018-09-19T09:37:29.377Z,52.60
2018-09-19T09:39:58.257Z,52.30
2018-09-19T09:42:27.015Z,52.70
2018-09-19T09:44:55.748Z,52.80
2018-09-19T09:47:24.814Z,51.60
2018-09-19T09:49:53.570Z,52.40
2018-09-19T09:52:22.309Z,52.40
2018-09-19T09:54:51.070Z,52.00
2018-09-19T09:57:19.828Z,51.60
2018-09-19T09:59:48.830Z,52.70
2018-09-19T10:02:17.666Z,52.10
2018-09-19T10:04:46.541Z,50.90
2018-09-19T10:07:15.314Z,49.50
2018-09-19T10:09:44.184Z,49.30
2018-09-19T10:12:12.975Z,49.50
2018-09-19T10:14:41.754Z,50.20
2018-09-19T10:17:10.584Z,50.80
2018-09-19T10:19:39.364Z,50.30
2018-09-19T10:22:08.170Z,49.40
2018-09-19T10:24:36.925Z,49.80
2018-09-19T10:27:05.955Z,50.00
2018-09-19T10:29:34.739Z,47.80
2018-09-19T10:32:03.482Z,48.00
2018-09-19T10:34:33.236Z,47.80
2018-09-19T10:37:02.023Z,48.00
2018-09-19T10:39:30.839Z,47.90
2018-09-19T10:41:59.693Z,48.00
2018-09-19T10:44:29.932Z,48.80
2018-09-19T10:46:58.711Z,49.10
2018-09-19T10:49:27.591Z,50.70
2018-09-19T10:51:56.410Z,50.50
2018-09-19T10:54:25.309Z,49.90
2018-09-19T10:56:54.187Z,50.10
2018-09-19T10:59:22.966Z,51.80
2018-09-19T11:01:51.753Z,50.90
2018-09-19T11:04:20.524Z,51.30
2018-09-19T11:06:49.275Z,51.70
2018-09-19T11:09:18.090Z,50.10
2018-09-19T11:11:46.992Z,50.70
2018-09-19T11:14:15.785Z,50.90
2018-09-19T11:16:44.703Z,50.30
2018-09-19T11:19:13.440Z,50.80
2018-09-19T11:21:42.297Z,50.10
2018-09-19T11:24:11.050Z,50.20
2018-09-19T11:26:39.815Z,49.50
2018-09-19T11:29:08.793Z,49.90
2018-09-19T11:31:37.574Z,50.40
2018-09-19T11:34:06.478Z,50.90
2018-09-19T11:36:35.267Z,50.90
2018-09-19T11:39:05.619Z,49.30
2018-09-19T11:41:34.380Z,49.10
2018-09-19T11:44:03.197Z,49.10
2018-09-19T11:46:31.986Z,48.50
2018-09-19T11:49:00.785Z,49.30
2018-09-19T11:51:29.647Z,47.80
2018-09-19T11:53:58.418Z,47.20
2018-09-19T11:56:27.219Z,45.90
2018-09-19T11:58:55.988Z,43.80
2018-09-19T12:01:25.378Z,44.90
2018-09-19T12:03:54.128Z,43.90
2018-09-19T12:06:22.953Z,44.00
2018-09-19T12:08:51.749Z,43.70
2018-09-19T12:11:20.805Z,42.30
2018-09-19T12:13:49.612Z,42.10
2018-09-19T12:16:18.422Z,42.50
2018-09-19T12:18:47.248Z,41.50
2018-09-19T12:21:16.171Z,40.90
2018-09-19T12:23:44.939Z,39.80
2018-09-19T12:26:13.776Z,40.20
2018-09-19T12:28:42.539Z,39.60
2018-09-19T12:31:11.320Z,39.00
2018-09-19T12:33:40.147Z,38.00
2018-09-19T12:36:08.958Z,38.30
2018-09-19T12:38:37.790Z,40.00
2018-09-19T12:41:07.092Z,40.60
2018-09-19T12:43:35.885Z,41.40
2018-09-19T12:46:04.732Z,41.90
2018-09-19T12:48:33.567Z,41.90
2018-09-19T12:51:02.593Z,41.30
2018-09-19T12:53:32.190Z,41.20
2018-09-19T12:56:00.953Z,41.10
2018-09-19T12:58:29.768Z,40.10
2018-09-19T13:00:58.609Z,40.80
2018-09-19T13:03:27.379Z,40.30
2018-09-19T13:05:56.193Z,39.50
2018-09-19T13:08:24.946Z,39.10
2018-09-19T13:10:53.721Z,39.00
2018-09-19T13:13:22.501Z,38.90
2018-09-19T13:15:51.299Z,38.60
2018-09-19T13:18:20.056Z,39.10
2018-09-19T13:20:48.851Z,39.00
2018-09-19T13:23:17.639Z,39.80
2018-09-19T13:25:46.430Z,40.50
2018-09-19T13:28:15.286Z,41.10
2018-09-19T13:30:44.053Z,40.50
2018-09-19T13:33:13.162Z,41.50
2018-09-19T13:35:41.911Z,42.20
2018-09-19T13:38:10.680Z,41.30
2018-09-19T13:40:39.473Z,42.20
2018-09-19T13:43:08.315Z,42.90
2018-09-19T13:45:37.119Z,43.60
2018-09-19T13:48:06.541Z,42.00
2018-09-19T13:50:43.134Z,42.00
2018-09-19T13:53:11.868Z,41.90
2018-09-19T13:55:40.600Z,41.70
2018-09-19T13:58:09.407Z,41.40
2018-09-19T14:00:38.267Z,41.40
2018-09-19T14:03:07.060Z,41.20
2018-09-19T14:05:35.842Z,41.30
2018-09-19T14:08:04.647Z,40.60
2018-09-19T14:10:33.448Z,41.20
2018-09-19T14:13:02.307Z,41.20
2018-09-19T14:15:31.098Z,40.40
2018-09-19T14:17:59.933Z,41.00
2018-09-19T14:20:28.672Z,41.10
2018-09-19T14:22:57.503Z,41.10
2018-09-19T14:25:26.261Z,41.70
2018-09-19T14:27:55.032Z,41.00
2018-09-19T14:30:23.784Z,40.90
2018-09-19T14:32:52.590Z,41.00
2018-09-19T14:35:21.404Z,40.80
2018-09-19T14:37:50.361Z,40.90
2018-09-19T14:40:19.246Z,41.20
2018-09-19T14:42:47.995Z,40.90
2018-09-19T14:45:16.756Z,41.80
2018-09-19T14:47:45.532Z,41.60
2018-09-19T14:50:14.289Z,41.80
2018-09-19T14:52:43.210Z,41.70
2018-09-19T14:55:12.029Z,42.30
2018-09-19T14:57:40.940Z,42.40
2018-09-19T15:00:09.904Z,42.80
2018-09-19T15:02:38.985Z,42.20
2018-09-19T15:05:07.877Z,42.30
2018-09-19T15:07:36.922Z,42.40
2018-09-19T15:10:05.802Z,41.60
2018-09-19T15:12:34.568Z,42.10
2018-09-19T15:15:03.435Z,42.40
2018-09-19T15:17:32.270Z,42.20
2018-09-19T15:20:01.110Z,42.80
2018-09-19T15:22:29.881Z,42.30
2018-09-19T15:24:58.665Z,42.50
2018-09-19T15:27:27.452Z,42.50
2018-09-19T15:29:56.256Z,42.70
2018-09-19T15:32:25.131Z,42.70
2018-09-19T15:34:53.918Z,43.10
2018-09-19T15:37:22.721Z,42.90
2018-09-19T15:39:51.755Z,42.90
2018-09-19T15:42:20.585Z,42.70
2018-09-19T15:44:49.792Z,42.50
2018-09-19T15:47:18.562Z,42.80
2018-09-19T15:49:47.457Z,42.20
2018-09-19T15:52:18.149Z,42.00
2018-09-19T15:54:47.450Z,42.40
2018-09-19T15:57:16.353Z,42.70
2018-09-19T15:59:46.871Z,42.10
2018-09-19T16:02:15.747Z,42.40
2018-09-19T16:04:45.915Z,42.70
2018-09-19T16:07:15.195Z,43.50
2018-09-19T16:09:43.972Z,43.30
2018-09-19T16:12:12.958Z,43.80
2018-09-19T16:14:41.936Z,43.70
2018-09-19T16:17:10.765Z,43.70
2018-09-19T16:19:39.637Z,43.80
2018-09-19T16:22:08.468Z,43.90
2018-09-19T16:24:37.244Z,44.30
2018-09-19T16:27:08.465Z,44.20
2018-09-19T16:29:37.728Z,44.40
2018-09-19T16:32:06.533Z,45.00
2018-09-19T16:34:35.361Z,45.40
2018-09-19T16:37:04.251Z,45.30
2018-09-19T16:39:35.568Z,45.50
2018-09-19T16:42:04.509Z,45.00
2018-09-19T16:44:33.509Z,45.40
2018-09-19T16:47:02.393Z,45.60
2018-09-19T16:49:31.140Z,46.00
2018-09-19T16:52:00.211Z,46.20
2018-09-19T16:54:28.943Z,46.20
2018-09-19T16:56:57.694Z,46.60
2018-09-19T16:59:31.837Z,46.90
2018-09-19T17:02:02.088Z,47.10
2018-09-19T17:04:30.849Z,47.10
2018-09-19T17:06:59.692Z,47.30
2018-09-19T17:09:28.557Z,47.80
2018-09-19T17:11:57.312Z,48.30
2018-09-19T17:14:26.144Z,48.40
2018-09-19T17:16:55.430Z,48.30
2018-09-19T17:19:24.211Z,48.30
2018-09-19T17:21:52.993Z,48.30
2018-09-19T17:24:21.754Z,48.40
2018-09-19T17:26:53.481Z,48.50
2018-09-19T17:29:22.280Z,48.70
2018-09-19T17:31:51.130Z,48.10
2018-09-19T17:34:19.903Z,48.80
2018-09-19T17:36:49.810Z,50.10
2018-09-19T17:39:18.713Z,49.60
2018-09-19T17:41:47.779Z,49.50
2018-09-19T17:44:16.532Z,49.30
2018-09-19T17:46:45.394Z,49.30
2018-09-19T17:49:14.192Z,49.80
2018-09-19T17:51:42.999Z,50.00
2018-09-19T17:54:11.809Z,49.80
2018-09-19T17:56:40.747Z,50.80
2018-09-19T17:59:09.548Z,50.20
2018-09-19T18:01:38.431Z,50.90
2018-09-19T18:04:07.454Z,51.10
2018-09-19T18:06:36.219Z,51.50
2018-09-19T18:09:06.275Z,51.40
2018-09-19T18:11:35.312Z,51.40
2018-09-19T18:14:04.940Z,51.60
2018-09-19T18:16:35.402Z,51.40
2018-09-19T18:19:04.207Z,51.40
2018-09-19T18:21:33.078Z,51.70
2018-09-19T18:24:02.086Z,52.60
2018-09-19T18:26:30.902Z,52.50
2018-09-19T18:29:01.179Z,52.70
2018-09-19T18:31:30.106Z,52.70
2018-09-19T18:34:00.164Z,53.20
2018-09-19T18:36:28.980Z,52.90
2018-09-19T18:38:57.868Z,53.30
2018-09-19T18:41:26.694Z,53.80
2018-09-19T18:43:55.500Z,54.10
2018-09-19T18:46:24.291Z,54.40
2018-09-19T18:48:53.351Z,54.70
2018-09-19T18:51:28.530Z,54.90
2018-09-19T18:53:57.339Z,55.50
2018-09-19T18:56:26.165Z,55.50
2018-09-19T18:58:55.150Z,56.10
2018-09-19T19:01:23.885Z,55.60
2018-09-19T19:03:52.794Z,56.00
2018-09-19T19:06:23.697Z,56.20
2018-09-19T19:08:52.465Z,56.20
2018-09-19T19:11:21.273Z,55.80
2018-09-19T19:13:50.063Z,55.40
2018-09-19T19:16:19.320Z,55.30
2018-09-19T19:18:48.232Z,55.30
2018-09-19T19:21:16.971Z,55.60
2018-09-19T19:23:46.454Z,55.90
2018-09-19T19:26:15.296Z,55.80
2018-09-19T19:28:44.141Z,55.80
2018-09-19T19:31:13.164Z,55.60
2018-09-19T19:33:41.978Z,55.50
2018-09-19T19:36:10.729Z,55.80
2018-09-19T19:38:39.521Z,56.10
2018-09-19T19:41:08.367Z,56.10
2018-09-19T19:43:37.110Z,56.30
2018-09-19T19:46:05.972Z,56.40
2018-09-19T19:48:35.222Z,56.60
2018-09-19T19:51:04.002Z,57.20
2018-09-19T19:53:35.748Z,57.30
2018-09-19T19:56:07.267Z,57.10
2018-09-19T19:58:40.045Z,57.40
2018-09-19T20:01:10.926Z,57.20
2018-09-19T20:03:40.835Z,56.90
2018-09-19T20:06:12.017Z,56.90
2018-09-19T20:08:47.179Z,56.90
2018-09-19T20:11:17.992Z,56.90
2018-09-19T20:13:47.039Z,57.20
2018-09-19T20:16:17.333Z,56.70
2018-09-19T20:18:47.504Z,56.50
2018-09-19T20:21:17.067Z,56.60
2018-09-19T20:23:47.139Z,56.70
2018-09-19T20:26:15.990Z,57.00
2018-09-19T20:28:45.893Z,57.40
2018-09-19T20:31:14.717Z,57.70
2018-09-19T20:33:45.263Z,57.60
2018-09-19T20:36:14.041Z,57.70
2018-09-19T20:38:43.454Z,57.90
2018-09-19T20:41:13.194Z,58.00
2018-09-19T20:43:41.933Z,58.20
2018-09-19T20:46:11.459Z,58.40
2018-09-19T20:48:41.289Z,58.40
2018-09-19T20:51:13.764Z,58.40
2018-09-19T20:53:43.084Z,58.60
2018-09-19T20:56:12.154Z,58.60
2018-09-19T20:58:41.605Z,59.30
2018-09-19T21:01:10.396Z,59.30
2018-09-19T21:03:39.473Z,59.30
2018-09-19T21:06:08.266Z,59.70
2018-09-19T21:08:37.380Z,59.60
2018-09-19T21:11:10.563Z,59.40
2018-09-19T21:13:42.070Z,59.70
2018-09-19T21:16:12.285Z,59.80
2018-09-19T21:18:41.328Z,59.80
2018-09-19T21:21:10.259Z,59.80
2018-09-19T21:23:41.909Z,60.10
2018-09-19T21:26:12.242Z,60.00
2018-09-19T21:28:41.077Z,59.90
2018-09-19T21:31:09.863Z,59.80
2018-09-19T21:33:45.119Z,60.30
2018-09-19T21:36:13.922Z,60.70
2018-09-19T21:38:42.712Z,59.90
2018-09-19T21:41:11.521Z,60.00
2018-09-19T21:43:40.291Z,60.20
2018-09-19T21:46:09.112Z,60.40
2018-09-19T21:48:37.925Z,60.40
2018-09-19T21:51:06.794Z,60.60
2018-09-19T21:53:35.693Z,60.90
2018-09-19T21:56:04.512Z,61.20
2018-09-19T21:58:33.283Z,61.20
2018-09-19T22:01:07.993Z,61.10
2018-09-19T22:03:37.789Z,60.90
2018-09-19T22:06:06.571Z,60.60
2018-09-19T22:08:35.954Z,60.70
2018-09-19T22:11:05.713Z,60.90
2018-09-19T22:13:34.572Z,61.30
2018-09-19T22:16:03.726Z,62.10
2018-09-19T22:18:32.482Z,62.10
2018-09-19T22:21:01.309Z,62.20
2018-09-19T22:23:30.100Z,63.00
2018-09-19T22:25:58.890Z,62.30
2018-09-19T22:28:27.637Z,62.10
2018-09-19T22:30:56.368Z,62.10
2018-09-19T22:33:25.115Z,62.10
2018-09-19T22:35:53.897Z,61.30
2018-09-19T22:38:23.927Z,61.30
2018-09-19T22:40:52.711Z,60.80
2018-09-19T22:43:21.481Z,60.50
2018-09-19T22:45:52.391Z,60.60
2018-09-19T22:48:23.436Z,60.80
2018-09-19T22:50:54.273Z,60.80
2018-09-19T22:53:23.347Z,60.70
2018-09-19T22:55:52.089Z,60.80
2018-09-19T22:58:20.817Z,60.90
2018-09-19T23:00:49.620Z,61.30
2018-09-19T23:03:18.405Z,62.30
2018-09-19T23:05:47.208Z,60.80
2018-09-19T23:08:15.980Z,61.00
2018-09-19T23:10:44.835Z,61.10
2018-09-19T23:13:13.601Z,62.30
2018-09-19T23:15:42.349Z,62.20
2018-09-19T23:18:11.163Z,62.00
2018-09-19T23:20:40.031Z,61.70
2018-09-19T23:23:08.901Z,62.20
2018-09-19T23:25:37.630Z,62.30
2018-09-19T23:28:06.741Z,62.20
2018-09-19T23:30:35.478Z,62.20
2018-09-19T23:33:04.238Z,62.50
2018-09-19T23:35:33.008Z,62.50
2018-09-19T23:38:01.806Z,62.90
2018-09-19T23:40:30.542Z,62.60
2018-09-19T23:42:59.328Z,62.80
2018-09-19T23:45:28.110Z,63.20
2018-09-19T23:47:56.914Z,62.90
2018-09-19T23:50:25.701Z,62.90
2018-09-19T23:52:54.487Z,63.70
2018-09-19T23:55:23.280Z,63.70
2018-09-19T23:57:52.114Z,63.70
